Time;durP1;ratioP1;P1;durP2;ratioP2;P2;SDS_P1;SDS_P2;PMS_P1;PMS_P2;Temp;Humidity;BMP_temperature;BMP_pressure;BME280_temperature;BME280_humidity;BME280_pressure;Samples;Min_cycle;Max_cycle;Signal;HPM_P1;HPM_P2
2021/08/01 00:02:44;;;;;;;10.05;7.50;;;;;;;14.96;69.91;99135.94;255493;1104;115199;-66
2021/08/01 00:07:47;;;;;;;7.78;6.28;;;;;;;14.87;70.67;99148.33;255438;1099;116501;-65
2021/08/01 00:12:51;;;;;;;8.90;7.33;;;;;;;14.84;70.75;99151.56;256745;1102;115975;-66
2021/08/01 00:17:56;;;;;;;7.23;6.33;;;;;;;14.89;70.80;99154.23;254508;1104;114997;-67
2021/08/01 00:23:02;;;;;;;9.80;7.83;;;;;;;14.96;70.65;99151.24;255428;1103;116024;-67
2021/08/01 00:28:06;;;;;;;8.90;8.10;;;;;;;14.98;71.19;99159.82;255056;1103;114991;-67
2021/08/01 00:33:10;;;;;;;8.13;6.73;;;;;;;14.99;71.18;99162.20;255310;1104;115667;-67
2021/08/01 00:38:15;;;;;;;;;;;;;;;14.99;71.48;99162.20;254061;1102;115093;-67
2021/08/01 00:43:18;;;;;;;6.40;5.87;;;;;;;14.95;72.02;99163.86;257445;1103;102292;-68
2021/08/01 00:48:26;;;;;;;13.95;8.78;;;;;;;14.91;71.89;99160.12;254362;1104;115684;-67
2021/08/01 00:53:30;;;;;;;12.85;8.03;;;;;;;14.94;72.04;99156.08;256156;1104;115060;-67
2021/08/01 00:58:34;;;;;;;8.58;7.65;;;;;;;14.93;71.67;99159.84;256147;1103;115449;-67
2021/08/01 01:03:45;;;;;;;10.80;8.45;;;;;;;14.91;72.16;99172.73;255746;1104;114742;-66
2021/08/01 01:09:02;;;;;;;12.40;8.90;;;;;;;14.93;72.20;99182.12;254520;1096;115676;-66
2021/08/01 01:14:09;;;;;;;9.53;8.25;;;;;;;14.98;72.13;99165.19;257072;1103;115788;-67
2021/08/01 01:19:33;;;;;;;10.88;8.43;;;;;;;14.95;71.66;99157.69;255414;1104;116001;-66
2021/08/01 01:24:40;;;;;;;9.28;7.83;;;;;;;14.87;71.69;99148.33;253918;1104;115235;-66
2021/08/01 01:30:03;;;;;;;12.06;7.94;;;;;;;14.85;71.93;99152.37;255579;1104;115487;-67
2021/08/01 01:35:12;;;;;;;16.60;8.40;;;;;;;14.76;71.98;99144.89;257110;1103;114691;-67
2021/08/01 01:40:21;;;;;;;8.30;7.50;;;;;;;14.72;72.06;99148.39;257265;1103;117657;-67
2021/08/01 01:45:27;;;;;;;10.20;7.50;;;;;;;14.68;72.00;99139.29;257305;1103;115490;-67
2021/08/01 01:50:32;;;;;;;13.00;7.80;;;;;;;14.58;71.32;99140.16;257137;1103;117223;-68
2021/08/01 01:55:38;;;;;;;9.07;8.17;;;;;;;14.50;71.68;99148.77;257236;1102;115782;-67
2021/08/01 02:00:41;;;;;;;7.43;6.53;;;;;;;14.41;71.97;99137.80;256052;1102;116813;-67
2021/08/01 02:05:46;;;;;;;15.07;6.93;;;;;;;14.37;72.01;99136.70;257099;1104;115902;-67
2021/08/01 02:10:55;;;;;;;11.23;8.13;;;;;;;14.37;72.32;99134.03;256325;1104;115163;-67
2021/08/01 02:16:00;;;;;;;10.00;7.70;;;;;;;14.44;72.35;99134.57;257095;1104;116892;-67
2021/08/01 02:21:04;;;;;;;12.18;7.50;;;;;;;14.39;71.95;99131.07;255351;1103;115319;-67
2021/08/01 02:26:10;;;;;;;11.33;8.95;;;;;;;14.33;72.17;99138.36;254999;1104;115197;-66
2021/08/01 02:31:17;;;;;;;12.65;8.45;;;;;;;14.25;72.70;99133.55;254682;1104;115442;-66
2021/08/01 02:36:24;;;;;;;21.20;9.93;;;;;;;14.32;72.56;99144.80;254456;1103;115115;-67
2021/08/01 02:41:32;;;;;;;;;;;;;;;14.29;72.60;99136.49;257897;1104;114952;-65
2021/08/01 02:46:38;;;;;;;11.18;8.35;;;;;;;14.14;72.70;99150.73;256697;1103;102915;-67
2021/08/01 02:51:42;;;;;;;15.68;9.98;;;;;;;14.08;72.56;99151.81;256526;1102;115387;-66
2021/08/01 02:56:46;;;;;;;11.63;8.25;;;;;;;14.14;73.05;99140.00;255052;1104;115006;-64
2021/08/01 03:01:55;;;;;;;10.43;7.80;;;;;;;14.22;73.48;99154.73;255972;1103;115549;-64
2021/08/01 03:06:58;;;;;;;11.05;7.05;;;;;;;14.15;72.69;99160.38;255376;1103;115505;-65
2021/08/01 03:12:13;;;;;;;12.98;8.00;;;;;;;14.15;72.72;99168.41;254189;1102;116254;-65
2021/08/01 03:17:16;;;;;;;12.13;8.48;;;;;;;14.19;73.06;99166.00;255525;1096;115768;-65
2021/08/01 03:22:20;;;;;;;10.03;8.00;;;;;;;14.12;73.25;99168.95;255986;1104;116037;-66
2021/08/01 03:27:23;;;;;;;5.48;4.98;;;;;;;14.02;72.81;99166.31;254688;1104;116827;-66
2021/08/01 03:32:27;;;;;;;10.20;7.73;;;;;;;13.94;73.53;99164.98;256496;1103;115231;-65
2021/08/01 03:37:30;;;;;;;9.53;7.45;;;;;;;14.00;73.48;99163.10;257410;1104;117083;-65
2021/08/01 03:42:33;;;;;;;12.10;8.48;;;;;;;14.05;73.50;99171.14;257146;1104;115023;-66
2021/08/01 03:47:38;;;;;;;10.13;7.20;;;;;;;14.22;73.83;99176.18;257166;1104;116111;-66
2021/08/01 03:52:41;;;;;;;7.88;7.13;;;;;;;14.37;73.32;99176.16;257132;1104;115107;-65
2021/08/01 03:57:44;;;;;;;11.77;7.17;;;;;;;14.48;73.82;99165.13;257044;1104;115022;-66
2021/08/01 04:02:48;;;;;;;8.17;6.60;;;;;;;14.55;73.60;99169.41;257083;1103;116042;-67
2021/08/01 04:07:51;;;;;;;7.65;6.80;;;;;;;14.69;73.74;99159.67;257278;1104;114865;-66
2021/08/01 04:12:53;;;;;;;6.33;5.83;;;;;;;14.89;73.76;99153.42;256228;1103;115149;-66
2021/08/01 04:17:57;;;;;;;9.40;7.78;;;;;;;15.03;73.67;99149.03;254924;1104;114775;-66
2021/08/01 04:23:01;;;;;;;15.28;8.05;;;;;;;15.16;73.20;99159.16;255031;1104;115385;-66
2021/08/01 04:28:04;;;;;;;9.23;7.38;;;;;;;15.39;73.79;99152.28;254994;1097;116314;-66
2021/08/01 04:33:10;;;;;;;14.40;7.70;;;;;;;15.82;73.91;99155.98;254552;1104;115140;-66
2021/08/01 04:38:14;;;;;;;8.50;7.63;;;;;;;16.16;73.35;99166.68;255502;1104;116317;-66
2021/08/01 04:43:16;;;;;;;12.73;7.18;;;;;;;16.35;73.06;99175.61;255059;1104;118060;-65
2021/08/01 04:48:20;;;;;;;12.78;8.18;;;;;;;16.64;73.33;99188.22;254960;1104;115403;-66
2021/08/01 04:53:23;;;;;;;8.60;6.83;;;;;;;17.08;73.11;99169.08;254565;1104;115118;-65
2021/08/01 04:58:27;;;;;;;12.65;6.03;;;;;;;17.48;72.58;99164.95;254192;1104;115361;-66
2021/08/01 05:03:30;;;;;;;7.33;5.63;;;;;;;17.75;72.23;99165.07;254779;1104;116342;-66
2021/08/01 05:08:33;;;;;;;5.30;4.75;;;;;;;17.82;71.75;99170.89;255354;1103;114760;-66
2021/08/01 05:13:36;;;;;;;10.23;5.43;;;;;;;17.98;71.32;99173.33;254444;1104;115732;-65
2021/08/01 05:18:40;;;;;;;9.60;5.48;;;;;;;18.17;71.31;99171.35;255091;1097;116167;-65
2021/08/01 05:23:43;;;;;;;10.43;6.57;;;;;;;18.36;71.22;99168.56;255591;1104;115453;-66
2021/08/01 05:28:47;;;;;;;7.38;5.90;;;;;;;18.68;70.56;99152.28;256475;1104;115270;-67
2021/08/01 05:33:50;;;;;;;9.40;5.48;;;;;;;19.91;69.12;99152.95;254771;1103;114654;-67
2021/08/01 05:38:53;;;;;;;5.38;4.75;;;;;;;21.03;67.16;99142.52;257340;1104;136726;-67
2021/08/01 05:43:56;;;;;;;5.93;4.13;;;;;;;21.11;66.82;99155.25;257356;1104;114884;-67
2021/08/01 05:48:59;;;;;;;5.63;5.13;;;;;;;22.59;64.88;99162.00;257294;1103;115490;-67
2021/08/01 05:54:03;;;;;;;8.78;4.83;;;;;;;23.38;63.42;99163.86;257464;1103;115889;-67
2021/08/01 05:59:07;;;;;;;4.93;4.50;;;;;;;23.80;62.24;99168.14;257076;1104;116593;-66
2021/08/01 06:04:10;;;;;;;4.97;4.57;;;;;;;24.11;60.12;99164.13;257008;1104;116202;-67
2021/08/01 06:09:14;;;;;;;6.03;4.13;;;;;;;25.13;58.09;99166.61;257102;1103;115946;-68
2021/08/01 06:14:17;;;;;;;7.63;3.23;;;;;;;24.89;57.46;99177.55;257107;1104;116353;-68
2021/08/01 06:19:21;;;;;;;7.10;4.28;;;;;;;24.37;56.91;99172.80;257207;1103;116730;-68
2021/08/01 06:24:25;;;;;;;7.87;3.80;;;;;;;24.04;56.60;99172.05;257348;1104;116139;-67
2021/08/01 06:29:29;;;;;;;9.90;4.13;;;;;;;23.84;55.96;99165.55;254935;1103;116524;-66
2021/08/01 06:34:33;;;;;;;4.90;3.75;;;;;;;23.45;55.62;99167.64;255637;1096;116284;-67
2021/08/01 06:39:36;;;;;;;5.78;3.28;;;;;;;23.50;55.64;99153.05;254841;1104;117239;-67
2021/08/01 06:44:39;;;;;;;6.00;4.20;;;;;;;23.64;55.52;99161.73;256180;1104;116251;-67
2021/08/01 06:49:43;;;;;;;5.30;3.18;;;;;;;23.55;54.42;99160.20;255079;1104;116279;-68
2021/08/01 06:54:58;;;;;;;3.33;2.73;;;;;;;23.67;54.75;99163.78;253983;1097;115420;-67
2021/08/01 07:00:01;;;;;;;7.48;4.20;;;;;;;23.78;54.43;99147.84;255320;1104;116223;-67
2021/08/01 07:05:04;;;;;;;3.58;2.23;;;;;;;23.96;53.47;99151.16;253796;1104;116204;-68
2021/08/01 07:10:08;;;;;;;2.60;2.33;;;;;;;23.76;52.88;99158.27;254323;1104;115928;-66
2021/08/01 07:15:17;;;;;;;5.18;3.25;;;;;;;23.35;54.12;99159.09;255194;1104;115794;-67
2021/08/01 07:20:20;;;;;;;2.68;2.48;;;;;;;22.95;54.15;99154.11;256264;1104;116895;-67
2021/08/01 07:25:23;;;;;;;1.98;1.83;;;;;;;22.53;55.69;99157.88;255205;1103;117564;-69
2021/08/01 07:30:26;;;;;;;4.47;2.47;;;;;;;22.18;56.52;99158.02;253678;1103;115820;-68
2021/08/01 07:35:30;;;;;;;2.90;2.63;;;;;;;21.89;56.74;99150.59;257010;1104;115994;-68
2021/08/01 07:40:33;;;;;;;2.27;2.03;;;;;;;21.66;57.58;99143.78;255318;1104;116225;-66
2021/08/01 07:45:37;;;;;;;2.77;2.43;;;;;;;21.43;58.25;99140.45;253938;1098;116797;-66
2021/08/01 07:50:41;;;;;;;4.15;2.05;;;;;;;21.15;58.64;99131.82;255491;1104;116442;-64
2021/08/01 07:55:44;;;;;;;3.75;2.75;;;;;;;20.92;59.30;99123.05;253932;1096;115978;-66
2021/08/01 08:00:48;;;;;;;2.38;2.18;;;;;;;20.83;59.90;99128.45;257037;1103;116919;-65
2021/08/01 08:05:52;;;;;;;5.60;4.90;;;;;;;20.95;60.61;99132.45;254330;1104;115890;-68
2021/08/01 08:10:55;;;;;;;6.38;3.40;;;;;;;21.11;60.52;99131.66;253797;1096;114548;-64
2021/08/01 08:15:58;;;;;;;6.55;3.18;;;;;;;21.31;60.01;99124.05;257185;1103;115047;-64
2021/08/01 08:21:01;;;;;;;3.30;2.70;;;;;;;21.61;59.49;99122.25;257251;1103;115615;-66
2021/08/01 08:26:03;;;;;;;3.38;2.53;;;;;;;21.86;59.00;99113.24;256991;1104;115450;-67
2021/08/01 08:31:06;;;;;;;10.20;3.70;;;;;;;22.03;58.17;99098.83;257133;1103;115929;-68
2021/08/01 08:36:09;;;;;;;12.40;8.58;;;;;;;22.24;57.63;99094.28;257127;1103;115826;-67
2021/08/01 08:41:21;;;;;;;3.83;2.95;;;;;;;22.45;57.33;99094.32;256182;1104;115675;-66
2021/08/01 08:46:34;;;;;;;2.93;2.73;;;;;;;22.60;56.18;99082.90;257100;1103;116046;-67
2021/08/01 08:51:38;;;;;;;13.88;2.73;;;;;;;22.71;56.15;99089.52;254919;1102;116836;-66
2021/08/01 08:56:43;;;;;;;2.48;1.90;;;;;;;22.80;56.40;99093.00;256982;1103;115193;-67
2021/08/01 09:01:47;;;;;;;2.30;2.10;;;;;;;22.85;55.58;99086.58;255522;1104;115902;-66
2021/08/01 09:06:51;;;;;;;3.28;2.10;;;;;;;22.99;55.05;99084.38;256263;1104;116071;-66
2021/08/01 09:11:55;;;;;;;3.03;2.28;;;;;;;23.18;54.75;99079.27;254248;1102;115602;-66
2021/08/01 09:16:59;;;;;;;3.83;1.75;;;;;;;23.22;54.11;99071.23;255990;1103;114869;-67
2021/08/01 09:22:14;;;;;;;3.55;1.93;;;;;;;23.16;54.09;99076.08;254091;1096;115808;-67
2021/08/01 09:27:33;;;;;;;2.10;1.93;;;;;;;23.02;53.97;99072.84;257266;1103;114674;-67
2021/08/01 09:32:49;;;;;;;6.45;3.20;;;;;;;22.93;54.38;99071.34;255293;1104;115483;-67
2021/08/01 09:37:59;;;;;;;3.95;2.33;;;;;;;22.79;54.73;99066.95;256100;1104;115915;-67
2021/08/01 09:43:13;;;;;;;2.55;1.85;;;;;;;22.63;54.94;99074.06;257065;1104;114769;-67
2021/08/01 09:48:21;;;;;;;3.30;1.93;;;;;;;22.39;54.86;99098.34;255575;1103;209634;-66
2021/08/01 09:53:28;;;;;;;2.18;2.03;;;;;;;22.09;55.88;99117.33;254683;1104;115243;-67
2021/08/01 09:58:36;;;;;;;3.93;2.23;;;;;;;21.93;56.83;99129.83;254943;1104;115442;-66
2021/08/01 10:03:44;;;;;;;2.38;2.18;;;;;;;21.81;57.77;99129.69;257144;1104;116275;-66
2021/08/01 10:08:51;;;;;;;9.00;3.65;;;;;;;21.78;58.90;99133.05;254886;1103;115222;-66
2021/08/01 10:13:56;;;;;;;2.60;2.40;;;;;;;21.70;59.68;99118.41;257159;1104;115006;-66
2021/08/01 10:19:00;;;;;;;7.43;2.68;;;;;;;21.60;60.45;99116.03;257036;1104;117297;-66
2021/08/01 10:24:05;;;;;;;6.13;3.83;;;;;;;21.54;60.78;99108.38;257018;1103;115442;-66
2021/08/01 10:29:12;;;;;;;3.30;2.65;;;;;;;21.51;61.46;99115.23;257096;1103;118829;-66
2021/08/01 10:34:41;;;;;;;2.95;2.75;;;;;;;21.55;61.74;99128.95;257177;1104;117168;-66
2021/08/01 10:39:46;;;;;;;2.70;2.50;;;;;;;21.58;62.46;99129.11;255441;1104;115178;-67
2021/08/01 10:44:50;;;;;;;5.90;3.05;;;;;;;21.53;62.72;99104.07;254540;1103;115503;-67
2021/08/01 10:49:54;;;;;;;3.90;2.98;;;;;;;21.58;62.87;99099.28;255595;1103;115805;-67
2021/08/01 10:55:05;;;;;;;7.43;2.85;;;;;;;21.64;63.13;99094.48;256376;1104;115242;-67
2021/08/01 11:00:09;;;;;;;5.83;4.20;;;;;;;21.61;63.08;99085.08;256028;1103;115973;-67
2021/08/01 11:05:36;;;;;;;6.65;2.85;;;;;;;21.50;62.89;99089.23;254709;1099;116861;-65
2021/08/01 11:10:43;;;;;;;2.43;2.25;;;;;;;21.26;61.97;99086.26;253552;1104;117547;-66
2021/08/01 11:15:47;;;;;;;2.88;2.33;;;;;;;21.09;62.19;99098.69;254470;1104;117023;-67
2021/08/01 11:20:53;;;;;;;3.00;2.60;;;;;;;20.90;62.87;99117.16;253907;1104;116155;-66
2021/08/01 11:26:08;;;;;;;2.87;2.60;;;;;;;20.69;63.46;99108.05;256747;1103;116588;-68
2021/08/01 11:31:23;;;;;;;2.95;2.73;;;;;;;20.42;63.25;99092.88;254229;1104;116466;-66
2021/08/01 11:36:32;;;;;;;5.85;2.03;;;;;;;20.21;63.29;99098.02;256012;1104;116900;-67
2021/08/01 11:41:39;;;;;;;2.85;2.65;;;;;;;19.91;63.57;99066.40;254657;1099;116387;-65
2021/08/01 11:46:58;;;;;;;4.58;3.10;;;;;;;19.62;64.55;99085.83;256464;1104;115796;-66
2021/08/01 11:52:06;;;;;;;4.00;3.23;;;;;;;19.43;65.23;99091.42;254097;1104;115639;-66
2021/08/01 11:57:12;;;;;;;2.33;2.15;;;;;;;19.32;65.50;99077.35;255306;1103;115630;-68
2021/08/01 12:02:16;;;;;;;4.53;2.80;;;;;;;19.16;66.39;99071.54;255640;1104;115899;-68
2021/08/01 12:07:20;;;;;;;5.95;2.43;;;;;;;19.03;65.90;99068.88;255638;1104;116035;-67
2021/08/01 12:12:28;;;;;;;3.45;3.15;;;;;;;18.91;66.57;99060.55;254737;1104;115985;-68
2021/08/01 12:17:36;;;;;;;4.17;2.77;;;;;;;18.77;66.40;99049.77;256973;1104;117103;-66
2021/08/01 12:22:45;;;;;;;4.50;2.50;;;;;;;18.64;66.72;99045.23;257411;1104;116583;-66
2021/08/01 12:27:49;;;;;;;2.20;2.10;;;;;;;18.49;66.97;99041.72;257119;1104;116252;-66
2021/08/01 12:32:53;;;;;;;3.28;2.73;;;;;;;18.48;67.51;99032.03;256997;1104;116153;-66
2021/08/01 12:38:02;;;;;;;3.07;2.73;;;;;;;18.48;67.84;99037.42;257181;1104;116230;-65
2021/08/01 12:43:26;;;;;;;3.05;2.65;;;;;;;18.45;67.68;99037.23;256191;1104;117304;-65
2021/08/01 12:48:33;;;;;;;2.33;2.20;;;;;;;18.45;67.81;99032.63;257082;1103;115988;-65
2021/08/01 12:53:37;;;;;;;;;;;;;;;18.44;68.30;99035.63;257000;1103;116074;-65
2021/08/01 12:58:43;;;;;;;3.85;2.75;;;;;;;18.43;68.43;99050.23;257449;1103;102247;-66
2021/08/01 13:03:57;;;;;;;3.20;2.97;;;;;;;18.40;68.32;99046.23;256017;1104;115877;-65
2021/08/01 13:09:06;;;;;;;4.65;3.55;;;;;;;18.31;68.42;99044.57;254436;1104;116357;-66
2021/08/01 13:14:11;;;;;;;7.98;2.73;;;;;;;18.27;68.42;99030.08;254574;1104;117060;-66
2021/08/01 13:19:16;;;;;;;3.83;2.93;;;;;;;18.34;68.82;99025.88;255846;1103;115730;-66
2021/08/01 13:24:20;;;;;;;3.20;2.85;;;;;;;18.32;68.76;99017.29;254799;1103;116035;-66
2021/08/01 13:29:24;;;;;;;4.75;3.05;;;;;;;18.31;68.64;99018.39;255906;1103;115977;-66
2021/08/01 13:34:38;;;;;;;2.80;2.60;;;;;;;18.39;68.79;99006.86;255044;1096;123855;-67
2021/08/01 13:39:42;;;;;;;3.43;3.13;;;;;;;18.62;69.13;98996.15;255866;1104;117301;-67
2021/08/01 13:44:46;;;;;;;4.38;2.90;;;;;;;18.82;68.70;98987.56;254636;1104;116225;-67
2021/08/01 13:50:04;;;;;;;7.58;3.18;;;;;;;18.94;68.69;98985.11;254068;1097;116447;-66
2021/08/01 13:55:11;;;;;;;3.05;2.85;;;;;;;19.17;69.06;98978.58;255721;1103;116712;-66
2021/08/01 14:00:19;;;;;;;6.30;2.85;;;;;;;19.41;68.69;98978.22;254292;1103;117102;-65
2021/08/01 14:05:23;;;;;;;3.18;2.35;;;;;;;19.52;68.32;98976.08;254024;1104;115687;-68
2021/08/01 14:10:27;;;;;;;3.55;3.25;;;;;;;19.36;67.73;98964.83;254655;1103;116161;-65
2021/08/01 14:15:31;;;;;;;4.13;3.60;;;;;;;19.33;68.41;98980.87;257078;1103;116029;-66
2021/08/01 14:20:34;;;;;;;2.78;2.38;;;;;;;19.41;68.57;98986.32;257066;1104;116861;-66
2021/08/01 14:25:38;;;;;;;3.58;2.55;;;;;;;19.33;68.07;98978.16;257168;1104;115794;-67
2021/08/01 14:30:42;;;;;;;2.88;2.78;;;;;;;19.23;67.89;98981.16;257103;1104;118149;-68
2021/08/01 14:35:46;;;;;;;2.70;2.50;;;;;;;18.98;67.75;98975.27;257092;1104;117868;-68
2021/08/01 14:40:52;;;;;;;2.00;1.90;;;;;;;18.86;68.07;98972.34;257041;1104;115467;-67
2021/08/01 14:45:57;;;;;;;2.90;2.35;;;;;;;18.71;68.33;98978.89;257149;1104;114851;-68
2021/08/01 14:51:11;;;;;;;3.48;2.65;;;;;;;18.64;68.36;98969.65;257092;1103;116373;-68
2021/08/01 14:56:23;;;;;;;4.25;2.23;;;;;;;18.53;68.44;98968.25;257374;1103;116207;-68
2021/08/01 15:01:35;;;;;;;5.93;3.60;;;;;;;18.43;68.76;98967.38;255315;1097;114861;-66
2021/08/01 15:06:48;;;;;;;5.43;3.98;;;;;;;18.46;68.96;98952.47;253631;1102;115314;-66
2021/08/01 15:12:05;;;;;;;5.15;2.80;;;;;;;18.51;69.27;98926.17;256406;1104;115217;-66
2021/08/01 15:17:24;;;;;;;3.80;3.13;;;;;;;18.51;69.44;98899.19;254413;1103;115453;-65
2021/08/01 15:23:04;;;;;;;5.50;2.13;;;;;;;18.51;69.24;98920.77;255270;1100;115154;-66
2021/08/01 15:28:07;;;;;;;7.73;2.90;;;;;;;18.54;69.59;98902.38;253954;1104;115561;-66
2021/08/01 15:33:13;;;;;;;3.98;3.45;;;;;;;18.51;69.48;98918.08;256994;1103;116553;-66
2021/08/01 15:38:18;;;;;;;2.65;2.45;;;;;;;18.53;69.58;98909.67;254126;1097;115694;-66
2021/08/01 15:43:23;;;;;;;3.25;3.00;;;;;;;18.51;69.74;98903.78;253827;1104;117000;-65
2021/08/01 15:48:31;;;;;;;3.80;2.70;;;;;;;18.48;69.90;98899.80;254783;1104;116604;-66
2021/08/01 15:53:51;;;;;;;5.78;2.63;;;;;;;18.46;70.08;98896.60;254057;1104;115421;-64
2021/08/01 15:59:14;;;;;;;2.88;2.68;;;;;;;18.46;69.99;98893.91;254625;1103;116453;-65
2021/08/01 16:04:37;;;;;;;2.78;2.55;;;;;;;18.40;70.53;98897.82;255423;1096;115820;-65
2021/08/01 16:10:05;;;;;;;3.10;2.53;;;;;;;18.31;70.48;98902.38;254126;1104;116239;-64
2021/08/01 16:15:19;;;;;;;3.08;2.85;;;;;;;18.21;70.40;98875.63;255497;1104;116083;-65
2021/08/01 16:20:23;;;;;;;6.10;2.60;;;;;;;18.15;70.46;98887.63;254419;1104;116257;-64
2021/08/01 16:25:26;;;;;;;3.08;2.20;;;;;;;18.10;70.71;98882.34;256536;1104;116552;-64
2021/08/01 16:30:30;;;;;;;2.80;2.60;;;;;;;18.06;70.40;98867.88;257039;1103;116987;-66
2021/08/01 16:35:38;;;;;;;3.85;2.73;;;;;;;18.06;70.93;98876.76;257114;1104;116287;-66
2021/08/01 16:41:10;;;;;;;2.95;2.75;;;;;;;18.00;70.61;98877.20;257007;1103;116552;-67
2021/08/01 16:46:19;;;;;;;3.20;3.00;;;;;;;18.00;71.01;98890.69;257080;1103;117172;-66
2021/08/01 16:51:31;;;;;;;4.83;2.30;;;;;;;17.99;70.70;98879.10;257236;1104;116920;-67
2021/08/01 16:56:45;;;;;;;2.98;2.30;;;;;;;17.96;70.97;98877.01;257054;1104;116788;-67
2021/08/01 17:02:08;;;;;;;4.58;2.58;;;;;;;17.94;71.34;98873.02;256166;1104;115982;-66
2021/08/01 17:07:21;;;;;;;3.20;2.85;;;;;;;17.95;71.50;98866.53;254969;1104;116118;-63
2021/08/01 17:12:26;;;;;;;34.40;15.53;;;;;;;17.93;71.24;98872.22;256654;1104;116118;-66
2021/08/01 17:17:29;;;;;;;8.00;4.70;;;;;;;17.91;71.38;98879.81;255003;1096;116690;-67
2021/08/01 17:22:34;;;;;;;3.65;3.18;;;;;;;17.88;71.27;98877.72;255740;1103;115985;-68
2021/08/01 17:27:39;;;;;;;5.08;3.38;;;;;;;17.81;71.44;98866.55;256412;1104;116099;-68
2021/08/01 17:32:47;;;;;;;7.88;3.73;;;;;;;17.76;71.58;98880.13;254385;1096;117327;-68
2021/08/01 17:37:53;;;;;;;22.37;11.50;;;;;;;17.70;71.87;98875.97;254280;1104;116239;-68
2021/08/01 17:43:03;;;;;;;12.80;5.40;;;;;;;17.65;72.20;98863.40;254173;1099;117141;-67
2021/08/01 17:48:08;;;;;;;10.75;3.15;;;;;;;17.62;72.25;98882.83;254195;1104;117724;-67
2021/08/01 17:53:11;;;;;;;4.77;4.37;;;;;;;17.59;72.55;98877.24;254131;1100;116111;-68
2021/08/01 17:58:14;;;;;;;4.85;3.30;;;;;;;17.52;72.93;98883.03;254030;1104;115585;-68
2021/08/01 18:03:17;;;;;;;3.25;2.93;;;;;;;17.50;72.93;98882.53;254533;1097;116396;-67
2021/08/01 18:08:39;;;;;;;5.65;3.90;;;;;;;17.45;72.83;98882.63;254158;1104;116732;-68
2021/08/01 18:13:58;;;;;;;9.58;3.75;;;;;;;17.35;72.94;98888.24;254155;1104;115693;-67
2021/08/01 18:19:05;;;;;;;5.10;3.53;;;;;;;17.32;73.42;98891.53;255367;1098;116359;-67
2021/08/01 18:24:10;;;;;;;6.73;3.60;;;;;;;17.30;73.57;98894.52;254264;1104;142692;-67
2021/08/01 18:29:15;;;;;;;5.13;3.20;;;;;;;17.31;73.44;98908.79;255047;1098;116687;-68
2021/08/01 18:34:18;;;;;;;3.85;3.20;;;;;;;17.30;73.72;98904.50;254827;1103;176240;-68
2021/08/01 18:39:22;;;;;;;6.90;3.85;;;;;;;17.30;73.67;98896.42;254218;1104;116023;-69
2021/08/01 18:44:27;;;;;;;14.23;8.17;;;;;;;17.25;74.07;98900.00;254310;1104;116361;-67
2021/08/01 18:49:33;;;;;;;7.63;5.83;;;;;;;17.26;74.05;98903.50;257246;1103;116453;-67
2021/08/01 18:54:42;;;;;;;8.98;4.95;;;;;;;17.27;74.15;98900.50;256962;1103;115580;-67
2021/08/01 18:59:48;;;;;;;8.08;5.38;;;;;;;17.30;74.14;98910.69;257013;1104;114675;-67
2021/08/01 19:04:54;;;;;;;5.85;5.10;;;;;;;17.35;74.17;98912.48;255717;1104;118208;-68
2021/08/01 19:09:59;;;;;;;10.55;8.33;;;;;;;17.35;74.28;98910.59;255047;1104;115424;-68
2021/08/01 19:15:03;;;;;;;12.85;7.70;;;;;;;17.34;74.20;98917.08;255342;1104;115843;-68
2021/08/01 19:20:12;;;;;;;6.13;4.63;;;;;;;17.32;74.26;98913.08;255747;1104;115057;-69
2021/08/01 19:25:18;;;;;;;5.20;4.00;;;;;;;17.27;74.15;98926.64;254379;1104;114718;-68
2021/08/01 19:30:23;;;;;;;4.70;4.10;;;;;;;17.24;74.35;98917.26;253963;1104;115943;-68
2021/08/01 19:35:27;;;;;;;8.57;4.03;;;;;;;17.22;74.36;98903.29;254259;1104;115533;-68
2021/08/01 19:40:31;;;;;;;4.20;3.90;;;;;;;17.22;74.87;98902.48;254769;1104;116317;-68
2021/08/01 19:45:36;;;;;;;10.60;6.00;;;;;;;17.20;74.89;98900.09;255298;1104;115647;-68
2021/08/01 19:50:40;;;;;;;6.58;4.58;;;;;;;17.25;75.02;98907.28;254820;1104;116341;-68
2021/08/01 19:55:44;;;;;;;5.80;5.00;;;;;;;17.25;75.11;98912.67;254272;1104;115260;-68
2021/08/01 20:00:47;;;;;;;6.53;5.23;;;;;;;17.25;75.07;98908.08;254472;1099;203998;-68
2021/08/01 20:05:51;;;;;;;6.60;5.85;;;;;;;17.18;74.78;98895.00;254184;1096;115633;-64
2021/08/01 20:10:54;;;;;;;6.03;5.53;;;;;;;17.09;75.42;98890.63;254267;1104;115461;-65
2021/08/01 20:15:58;;;;;;;7.08;5.68;;;;;;;17.05;75.49;98890.42;255035;1100;116112;-66
2021/08/01 20:21:02;;;;;;;6.77;6.17;;;;;;;17.05;75.62;98895.01;254200;1096;115455;-65
2021/08/01 20:26:07;;;;;;;7.80;6.48;;;;;;;17.03;75.62;98889.92;256141;1097;115476;-65
2021/08/01 20:31:10;;;;;;;6.33;5.83;;;;;;;17.01;75.96;98881.34;254472;1097;115334;-69
2021/08/01 20:36:15;;;;;;;6.77;5.23;;;;;;;17.05;75.90;98885.03;254248;1102;117760;-67
2021/08/01 20:41:19;;;;;;;5.17;4.67;;;;;;;17.08;75.65;98884.44;254185;1104;115093;-67
2021/08/01 20:46:22;;;;;;;5.45;5.05;;;;;;;17.06;75.84;98881.25;254460;1103;115263;-67
2021/08/01 20:51:32;;;;;;;7.25;6.53;;;;;;;17.09;76.08;98891.42;257117;1104;116325;-68
2021/08/01 20:56:35;;;;;;;7.25;6.55;;;;;;;17.13;76.19;98896.98;256558;1104;115888;-68
2021/08/01 21:01:38;;;;;;;8.05;6.10;;;;;;;17.08;75.90;98895.22;256007;1104;115294;-69
2021/08/01 21:06:45;;;;;;;7.73;7.03;;;;;;;17.00;75.99;98898.59;254423;1104;115223;-68
2021/08/01 21:11:48;;;;;;;9.10;6.78;;;;;;;16.93;75.86;98913.52;255564;1103;117104;-68
2021/08/01 21:16:51;;;;;;;7.53;6.48;;;;;;;16.91;75.96;98916.51;254368;1104;115616;-67
2021/08/01 21:21:55;;;;;;;8.43;7.00;;;;;;;16.91;76.05;98921.09;254866;1104;115024;-67
2021/08/01 21:27:00;;;;;;;7.13;6.43;;;;;;;16.95;76.40;98936.36;254002;1103;115806;-68
2021/08/01 21:32:03;;;;;;;6.83;6.23;;;;;;;16.93;76.05;98926.98;254381;1104;115553;-67
2021/08/01 21:37:07;;;;;;;5.38;4.88;;;;;;;16.90;76.21;98931.06;254295;1104;118081;-69
2021/08/01 21:42:12;;;;;;;6.28;5.80;;;;;;;16.78;75.94;98930.75;254865;1104;115629;-67
2021/08/01 21:47:16;;;;;;;8.18;5.33;;;;;;;16.70;76.03;98932.22;253946;1104;115411;-67
2021/08/01 21:52:22;;;;;;;6.02;4.92;;;;;;;16.60;75.76;98940.41;254225;1103;116242;-68
2021/08/01 21:57:26;;;;;;;4.55;4.10;;;;;;;16.53;75.86;98939.17;254280;1104;115748;-67
2021/08/01 22:02:34;;;;;;;10.67;4.93;;;;;;;16.44;75.81;98942.55;254352;1104;115932;-67
2021/08/01 22:07:44;;;;;;;4.85;4.43;;;;;;;16.37;76.13;98949.38;255124;1104;115405;-67
2021/08/01 22:12:48;;;;;;;4.53;4.13;;;;;;;16.32;76.25;98949.45;254382;1104;115006;-67
2021/08/01 22:17:53;;;;;;;10.60;4.68;;;;;;;16.25;76.30;98941.73;255224;1104;115300;-67
2021/08/01 22:22:56;;;;;;;7.10;3.55;;;;;;;16.17;76.39;98937.03;254948;1104;115963;-65
2021/08/01 22:28:01;;;;;;;4.63;4.13;;;;;;;16.15;76.52;98939.22;255095;1103;116390;-67
2021/08/01 22:33:05;;;;;;;5.97;3.00;;;;;;;16.03;75.82;98930.77;255081;1104;115902;-67
2021/08/01 22:38:10;;;;;;;8.33;2.38;;;;;;;15.93;76.13;98925.52;255837;1104;114991;-67
2021/08/01 22:43:16;;;;;;;2.38;2.18;;;;;;;15.83;75.92;98927.27;254363;1103;115310;-68
2021/08/01 22:48:22;;;;;;;2.50;2.30;;;;;;;15.76;75.86;98940.26;254139;1104;114973;-69
2021/08/01 22:53:25;;;;;;;3.03;2.00;;;;;;;15.72;75.85;98941.11;255528;1103;115745;-67
2021/08/01 22:58:28;;;;;;;2.93;2.73;;;;;;;15.68;76.13;98935.52;256001;1104;115675;-64
2021/08/01 23:03:38;;;;;;;2.97;2.57;;;;;;;15.69;76.38;98936.31;254884;1104;114983;-67
2021/08/01 23:08:49;;;;;;;2.30;2.10;;;;;;;15.72;76.51;98936.54;257262;1103;115392;-67
2021/08/01 23:14:23;;;;;;;2.00;1.90;;;;;;;15.74;76.24;98933.56;256176;1103;115170;-67
2021/08/01 23:19:33;;;;;;;4.60;2.33;;;;;;;15.76;76.36;98929.51;255465;1103;115349;-67
2021/08/01 23:24:46;;;;;;;3.48;2.63;;;;;;;15.75;76.30;98935.97;255069;1104;115862;-67
2021/08/01 23:29:50;;;;;;;1.73;1.63;;;;;;;15.73;76.05;98932.77;254554;1104;114663;-68